createdAt,value
2023-01-01T00:00:32.441Z,76.08
2023-01-01T00:04:00.928Z,76.02
2023-01-01T00:07:07.723Z,76.19
2023-01-01T00:10:29.652Z,76.32
2023-01-01T00:13:37.858Z,76.46
2023-01-01T00:16:44.810Z,76.70
2023-01-01T00:19:51.809Z,76.87
2023-01-01T00:22:58.526Z,77.19
2023-01-01T00:26:13.092Z,77.40
2023-01-01T00:29:20.014Z,77.60
2023-01-01T00:32:26.879Z,77.93
2023-01-01T00:35:34.582Z,78.09
2023-01-01T00:38:42.564Z,78.12
2023-01-01T00:41:49.204Z,78.35
2023-01-01T00:44:55.951Z,78.38
2023-01-01T00:48:02.662Z,78.47
2023-01-01T00:51:10.605Z,78.65
2023-01-01T00:54:17.433Z,78.86
2023-01-01T00:57:24.226Z,78.94
2023-01-01T01:00:31.135Z,79.03
2023-01-01T01:03:40.372Z,79.10
2023-01-01T01:06:47.146Z,78.89
2023-01-01T01:09:53.858Z,78.66
2023-01-01T01:13:00.605Z,78.40
2023-01-01T01:16:13.327Z,78.38
2023-01-01T01:19:23.961Z,77.95
2023-01-01T01:22:30.733Z,77.57
2023-01-01T01:25:37.641Z,77.16
2023-01-01T01:28:49.363Z,76.70
2023-01-01T01:31:56.876Z,76.34
2023-01-01T01:35:03.932Z,75.52
2023-01-01T01:38:11.188Z,74.93
2023-01-01T01:41:27.922Z,74.64
2023-01-01T01:44:57.990Z,74.08
2023-01-01T01:48:05.203Z,74.05
2023-01-01T01:51:14.568Z,73.66
2023-01-01T01:54:26.413Z,73.31
2023-01-01T01:57:34.431Z,73.08
2023-01-01T02:00:41.130Z,72.91
2023-01-01T02:03:54.528Z,72.63
2023-01-01T02:07:01.351Z,72.46
2023-01-01T02:10:09.356Z,72.38
2023-01-01T02:13:16.849Z,71.90
2023-01-01T02:16:28.934Z,71.78
2023-01-01T02:19:45.943Z,71.48
2023-01-01T02:23:24.081Z,71.27
2023-01-01T02:26:54.212Z,70.90
2023-01-01T02:30:05.511Z,70.86
2023-01-01T02:33:18.540Z,70.55
2023-01-01T02:36:27.803Z,70.05
2023-01-01T02:39:38.039Z,69.97
2023-01-01T02:42:45.889Z,70.06
2023-01-01T02:45:53.700Z,69.87
2023-01-01T02:49:06.228Z,69.72
2023-01-01T02:52:26.217Z,69.93
2023-01-01T02:55:42.800Z,69.83
2023-01-01T02:59:14.269Z,70.09
2023-01-01T03:02:30.890Z,69.97
2023-01-01T03:06:02.398Z,70.28
2023-01-01T03:09:18.918Z,70.38
2023-01-01T03:12:39.850Z,70.62
2023-01-01T03:15:53.805Z,70.80
2023-01-01T03:19:14.476Z,70.93
2023-01-01T03:22:25.882Z,71.08
2023-01-01T03:25:38.309Z,71.06
2023-01-01T03:28:50.154Z,71.14
2023-01-01T03:32:00.801Z,71.03
2023-01-01T03:35:08.757Z,70.92
2023-01-01T03:38:19.836Z,70.90
2023-01-01T03:41:33.440Z,70.87
2023-01-01T03:44:45.478Z,70.72
2023-01-01T03:47:52.284Z,70.73
2023-01-01T03:51:10.674Z,70.86
2023-01-01T03:54:25.084Z,70.80
2023-01-01T03:57:38.859Z,71.00
2023-01-01T04:00:52.414Z,71.02
2023-01-01T04:04:00.230Z,71.14
2023-01-01T04:07:15.182Z,71.17
2023-01-01T04:10:23.949Z,71.47
2023-01-01T04:13:30.893Z,71.62
2023-01-01T04:16:37.770Z,71.79
2023-01-01T04:19:50.072Z,71.99
2023-01-01T04:23:01.194Z,72.42
2023-01-01T04:26:12.811Z,72.65
2023-01-01T04:29:19.993Z,73.01
2023-01-01T04:32:26.820Z,73.03
2023-01-01T04:35:33.691Z,73.17
2023-01-01T04:38:40.653Z,73.15
2023-01-01T04:41:49.368Z,73.06
2023-01-01T04:44:56.052Z,72.85
2023-01-01T04:48:07.644Z,72.51
2023-01-01T04:51:16.759Z,72.30
2023-01-01T04:54:23.551Z,71.99
2023-01-01T04:57:31.939Z,71.91
2023-01-01T05:00:38.829Z,71.55
2023-01-01T05:03:45.677Z,71.29
2023-01-01T05:06:52.404Z,71.21
2023-01-01T05:09:59.163Z,71.22
2023-01-01T05:13:10.078Z,71.35
2023-01-01T05:16:19.335Z,71.33
2023-01-01T05:19:24.540Z,71.69
2023-01-01T05:22:31.413Z,71.96
2023-01-01T05:25:38.158Z,72.27
2023-01-01T05:28:45.274Z,72.66
2023-01-01T05:31:53.204Z,72.95
2023-01-01T05:35:00.158Z,73.37
2023-01-01T05:38:06.922Z,73.85
2023-01-01T05:41:16.075Z,74.03
2023-01-01T05:44:23.103Z,74.15
2023-01-01T05:47:30.700Z,74.16
2023-01-01T05:50:37.456Z,74.20
2023-01-01T05:53:45.969Z,74.15
2023-01-01T05:56:52.846Z,73.85
2023-01-01T05:59:59.678Z,73.56
2023-01-01T06:03:06.630Z,72.89
2023-01-01T06:06:15.246Z,72.49
2023-01-01T06:09:21.955Z,71.97
2023-01-01T06:12:28.906Z,71.60
2023-01-01T06:15:35.631Z,70.90
2023-01-01T06:18:42.688Z,70.19
2023-01-01T06:21:49.401Z,69.77
2023-01-01T06:24:56.074Z,69.05
2023-01-01T06:28:02.857Z,68.50
2023-01-01T06:31:11.673Z,68.07
2023-01-01T06:34:18.841Z,67.46
2023-01-01T06:37:25.870Z,66.53
2023-01-01T06:40:32.542Z,66.22
2023-01-01T06:43:39.474Z,66.08
2023-01-01T06:46:46.421Z,65.99
2023-01-01T06:49:53.122Z,65.77
2023-01-01T06:52:59.822Z,65.60
2023-01-01T06:56:07.718Z,65.84
2023-01-01T06:59:14.545Z,65.88
2023-01-01T07:02:21.409Z,66.25
2023-01-01T07:05:30.221Z,66.33
2023-01-01T07:08:37.129Z,66.51
2023-01-01T07:11:43.904Z,66.65
2023-01-01T07:14:50.677Z,66.48
2023-01-01T07:17:57.362Z,66.73
2023-01-01T07:21:05.653Z,66.20
2023-01-01T07:24:13.935Z,66.30
2023-01-01T07:27:20.705Z,66.06
2023-01-01T07:30:27.309Z,65.82
2023-01-01T07:33:34.172Z,65.76
2023-01-01T07:36:41.298Z,65.17
2023-01-01T07:39:49.456Z,64.93
2023-01-01T07:42:56.063Z,64.51
2023-01-01T07:46:03.322Z,64.24
2023-01-01T07:49:10.141Z,64.03
2023-01-01T07:52:17.163Z,63.02
2023-01-01T07:55:24.597Z,62.69
2023-01-01T07:58:31.328Z,62.55
2023-01-01T08:01:40.111Z,62.41
2023-01-01T08:04:47.007Z,62.21
2023-01-01T08:07:54.067Z,62.09
2023-01-01T08:11:04.416Z,62.05
2023-01-01T08:14:11.244Z,62.26
2023-01-01T08:17:18.791Z,62.19
2023-01-01T08:20:25.455Z,62.24
2023-01-01T08:23:32.270Z,62.33
2023-01-01T08:26:40.524Z,62.41
2023-01-01T08:29:47.893Z,62.26
2023-01-01T08:32:54.529Z,62.26
2023-01-01T08:36:01.833Z,61.95
2023-01-01T08:39:08.662Z,61.95
2023-01-01T08:42:16.121Z,61.49
2023-01-01T08:45:23.027Z,61.60
2023-01-01T08:48:31.078Z,61.40
2023-01-01T08:51:38.346Z,60.75
2023-01-01T08:54:46.161Z,60.71
2023-01-01T08:57:52.859Z,60.19
2023-01-01T09:01:00.562Z,60.20
2023-01-01T09:04:15.175Z,59.72
2023-01-01T09:07:22.966Z,59.26
2023-01-01T09:10:29.784Z,58.85
2023-01-01T09:13:37.011Z,58.73
2023-01-01T09:16:44.383Z,58.40
2023-01-01T09:19:51.370Z,58.09
2023-01-01T09:23:03.996Z,57.64
2023-01-01T09:26:12.979Z,57.49
2023-01-01T09:29:20.907Z,57.18
2023-01-01T09:32:27.724Z,56.66
2023-01-01T09:35:35.726Z,56.82
2023-01-01T09:38:42.410Z,56.46
2023-01-01T09:42:05.412Z,56.35
2023-01-01T09:45:27.199Z,56.29
2023-01-01T09:48:37.468Z,56.32
2023-01-01T09:51:51.097Z,56.02
2023-01-01T09:55:07.485Z,56.00
2023-01-01T09:58:15.915Z,55.82
2023-01-01T10:01:37.289Z,55.59
2023-01-01T10:04:56.905Z,55.80
2023-01-01T10:08:11.360Z,55.46
2023-01-01T10:11:26.940Z,55.32
2023-01-01T10:14:37.499Z,55.20
2023-01-01T10:17:49.447Z,55.29
2023-01-01T10:21:04.786Z,54.98
2023-01-01T10:24:33.052Z,54.95
2023-01-01T10:27:46.426Z,55.10
2023-01-01T10:30:59.916Z,54.97
2023-01-01T10:34:17.017Z,55.08
2023-01-01T10:37:24.441Z,55.03
2023-01-01T10:40:32.161Z,54.99
2023-01-01T10:43:39.556Z,55.04
2023-01-01T10:46:51.562Z,55.33
2023-01-01T10:50:00.874Z,55.65
2023-01-01T10:53:19.831Z,55.56
2023-01-01T10:56:28.949Z,55.38
2023-01-01T10:59:35.480Z,56.06
2023-01-01T11:02:42.403Z,55.46
2023-01-01T11:06:18.575Z,55.85
2023-01-01T11:09:27.684Z,56.03
2023-01-01T11:13:04.338Z,55.78
2023-01-01T11:16:03.109Z,55.76
2023-01-01T11:19:20.801Z,55.50
2023-01-01T11:22:42.244Z,55.49
2023-01-01T11:26:01.311Z,55.38
2023-01-01T11:29:27.727Z,55.18
2023-01-01T11:32:37.814Z,55.19
2023-01-01T11:35:54.179Z,54.96
2023-01-01T11:39:23.455Z,54.95
2023-01-01T11:42:31.834Z,54.82
2023-01-01T11:45:43.498Z,54.67
2023-01-01T11:48:50.604Z,54.90
2023-01-01T11:51:58.018Z,54.63
2023-01-01T11:55:14.708Z,54.54
2023-01-01T11:58:26.310Z,54.58
2023-01-01T12:01:40.354Z,54.64
2023-01-01T12:04:53.344Z,54.43
2023-01-01T12:08:04.340Z,54.43
2023-01-01T12:11:18.522Z,54.83
2023-01-01T12:14:33.023Z,54.97
2023-01-01T12:17:48.471Z,54.90
2023-01-01T12:20:58.606Z,54.97
2023-01-01T12:24:06.570Z,55.11
2023-01-01T12:27:29.633Z,55.32
2023-01-01T12:30:45.068Z,55.35
2023-01-01T12:34:05.888Z,55.34
2023-01-01T12:37:22.475Z,55.60
2023-01-01T12:40:53.597Z,55.54
2023-01-01T12:44:14.128Z,55.72
2023-01-01T12:47:37.776Z,55.51
2023-01-01T12:51:03.177Z,55.71
2023-01-01T12:54:50.920Z,55.86
2023-01-01T12:58:05.188Z,56.11
2023-01-01T13:01:15.918Z,56.14
2023-01-01T13:04:24.324Z,56.45
2023-01-01T13:07:37.365Z,56.59
2023-01-01T13:10:46.182Z,56.77
2023-01-01T13:13:53.011Z,57.12
2023-01-01T13:17:00.585Z,57.29
2023-01-01T13:20:26.759Z,57.32
2023-01-01T13:23:47.871Z,57.54
2023-01-01T13:26:55.250Z,57.81
2023-01-01T13:30:02.134Z,57.87
2023-01-01T13:33:25.997Z,57.94
2023-01-01T13:36:36.259Z,58.26
2023-01-01T13:39:56.990Z,58.47
2023-01-01T13:43:21.318Z,58.57
2023-01-01T13:46:36.265Z,58.60
2023-01-01T13:50:04.843Z,59.01
2023-01-01T13:53:34.018Z,59.13
2023-01-01T13:56:49.758Z,59.56
2023-01-01T14:00:06.652Z,59.65
2023-01-01T14:03:21.313Z,59.92
2023-01-01T14:06:32.021Z,60.14
2023-01-01T14:09:38.816Z,60.41
2023-01-01T14:12:45.663Z,60.65
2023-01-01T14:15:58.166Z,60.88
2023-01-01T14:19:05.958Z,60.98
2023-01-01T14:22:18.807Z,61.23
2023-01-01T14:25:29.618Z,61.33
2023-01-01T14:28:37.606Z,61.57
2023-01-01T14:31:46.880Z,61.82
2023-01-01T14:35:02.958Z,62.14
2023-01-01T14:38:27.257Z,62.36
2023-01-01T14:41:36.702Z,62.63
2023-01-01T14:44:47.814Z,62.96
2023-01-01T14:47:57.187Z,63.07
2023-01-01T14:51:04.127Z,63.43
2023-01-01T14:54:19.006Z,63.87
2023-01-01T14:57:29.138Z,64.17
2023-01-01T15:00:36.668Z,64.46
2023-01-01T15:03:55.422Z,64.67
2023-01-01T15:07:03.096Z,64.97
2023-01-01T15:10:14.836Z,65.36
2023-01-01T15:13:23.379Z,65.54
2023-01-01T15:16:38.124Z,65.78
2023-01-01T15:19:49.179Z,65.98
2023-01-01T15:22:57.189Z,66.24
2023-01-01T15:26:07.879Z,66.44
2023-01-01T15:29:28.535Z,66.63
2023-01-01T15:32:38.561Z,66.71
2023-01-01T15:35:49.811Z,67.04
2023-01-01T15:38:57.445Z,67.28
2023-01-01T15:42:04.372Z,67.25
2023-01-01T15:45:24.511Z,67.46
2023-01-01T15:48:37.542Z,67.85
2023-01-01T15:51:45.081Z,67.93
2023-01-01T15:54:51.883Z,68.26
2023-01-01T15:57:59.121Z,68.25
2023-01-01T16:01:08.473Z,68.54
2023-01-01T16:04:28.074Z,68.65
2023-01-01T16:07:35.872Z,68.74
2023-01-01T16:10:42.710Z,68.96
2023-01-01T16:13:49.380Z,69.34
2023-01-01T16:17:01.034Z,69.68
2023-01-01T16:20:11.931Z,69.79
2023-01-01T16:23:19.658Z,70.14
2023-01-01T16:26:26.814Z,70.23
2023-01-01T16:29:33.873Z,70.38
2023-01-01T16:32:40.900Z,70.55
2023-01-01T16:35:47.800Z,70.79
2023-01-01T16:38:54.630Z,71.04
2023-01-01T16:42:01.492Z,71.23
2023-01-01T16:45:15.181Z,71.23
2023-01-01T16:48:21.799Z,71.53
2023-01-01T16:51:31.773Z,71.64
2023-01-01T16:54:40.398Z,71.83
2023-01-01T16:57:48.214Z,72.13
2023-01-01T17:01:02.126Z,72.05
2023-01-01T17:04:09.562Z,72.14
2023-01-01T17:07:16.402Z,72.19
2023-01-01T17:10:23.333Z,72.30
2023-01-01T17:13:30.281Z,72.55
2023-01-01T17:16:39.795Z,72.93
2023-01-01T17:19:47.088Z,73.08
2023-01-01T17:22:53.949Z,73.31
2023-01-01T17:26:08.237Z,73.66
2023-01-01T17:29:15.206Z,73.86
2023-01-01T17:32:22.071Z,74.21
2023-01-01T17:35:33.194Z,74.40
2023-01-01T17:38:40.651Z,74.65
2023-01-01T17:41:47.489Z,74.70
2023-01-01T17:44:54.308Z,74.72
2023-01-01T17:48:01.550Z,74.93
2023-01-01T17:51:08.899Z,75.39
2023-01-01T17:54:15.808Z,75.81
2023-01-01T17:57:22.667Z,75.87
2023-01-01T18:00:29.302Z,76.10
2023-01-01T18:03:36.152Z,76.04
2023-01-01T18:06:45.840Z,76.28
2023-01-01T18:09:55.002Z,76.48
2023-01-01T18:13:01.852Z,76.48
2023-01-01T18:16:10.555Z,76.32
2023-01-01T18:19:17.612Z,76.58
2023-01-01T18:22:27.419Z,76.64
2023-01-01T18:25:34.297Z,76.50
2023-01-01T18:28:41.877Z,76.60
2023-01-01T18:31:48.825Z,76.70
2023-01-01T18:34:55.642Z,76.68
2023-01-01T18:38:02.342Z,76.92
2023-01-01T18:41:26.693Z,76.74
2023-01-01T18:44:34.930Z,76.90
2023-01-01T18:47:41.634Z,77.05
2023-01-01T18:50:48.560Z,77.32
2023-01-01T18:53:58.994Z,77.61
2023-01-01T18:57:15.449Z,77.78
2023-01-01T19:00:26.028Z,77.97
2023-01-01T19:03:40.758Z,78.11
2023-01-01T19:06:48.153Z,78.37
2023-01-01T19:09:59.011Z,78.54
2023-01-01T19:13:17.238Z,78.45
2023-01-01T19:16:30.475Z,78.53
2023-01-01T19:19:41.514Z,78.72
2023-01-01T19:22:48.996Z,78.76
2023-01-01T19:25:58.498Z,78.73
2023-01-01T19:29:10.013Z,78.70
2023-01-01T19:32:17.070Z,78.84
2023-01-01T19:35:23.973Z,78.99
2023-01-01T19:38:30.731Z,79.14
2023-01-01T19:41:38.996Z,79.41
2023-01-01T19:44:45.633Z,79.61
2023-01-01T19:47:52.393Z,79.86
2023-01-01T19:50:59.471Z,79.81
2023-01-01T19:54:07.169Z,80.04
2023-01-01T19:57:14.189Z,80.08
2023-01-01T20:00:21.405Z,80.15
2023-01-01T20:03:54.153Z,80.05
2023-01-01T20:06:55.083Z,80.16
2023-01-01T20:10:01.817Z,80.37
2023-01-01T20:13:09.539Z,80.55
2023-01-01T20:16:16.293Z,80.75
2023-01-01T20:19:23.080Z,81.07
2023-01-01T20:22:29.955Z,81.03
2023-01-01T20:25:36.767Z,80.92
2023-01-01T20:29:00.426Z,81.06
2023-01-01T20:32:12.690Z,81.32
2023-01-01T20:35:40.460Z,81.42
2023-01-01T20:38:47.359Z,81.44
2023-01-01T20:41:54.308Z,81.47
2023-01-01T20:45:01.504Z,81.28
2023-01-01T20:48:08.850Z,81.38
2023-01-01T20:51:15.575Z,81.48
2023-01-01T20:54:23.685Z,81.42
2023-01-01T20:57:31.195Z,81.43
2023-01-01T21:00:38.088Z,81.29
2023-01-01T21:03:44.989Z,81.53
2023-01-01T21:06:51.792Z,81.55
2023-01-01T21:09:58.616Z,81.58
2023-01-01T21:13:05.390Z,81.28
2023-01-01T21:16:19.253Z,81.06
2023-01-01T21:19:27.366Z,81.10
2023-01-01T21:22:34.837Z,80.93
2023-01-01T21:25:51.442Z,80.86
2023-01-01T21:29:02.949Z,80.75
2023-01-01T21:32:19.071Z,80.87
2023-01-01T21:35:31.768Z,80.59
2023-01-01T21:38:38.417Z,80.61
2023-01-01T21:41:45.301Z,80.54
2023-01-01T21:44:56.672Z,80.48
2023-01-01T21:48:14.875Z,80.20
2023-01-01T21:51:25.908Z,80.21
2023-01-01T21:54:36.567Z,80.17
2023-01-01T21:57:45.829Z,80.09
2023-01-01T22:00:52.736Z,80.15
2023-01-01T22:04:04.537Z,80.06
2023-01-01T22:07:56.636Z,80.10
2023-01-01T22:10:48.042Z,80.12
2023-01-01T22:13:55.536Z,80.23
2023-01-01T22:17:03.298Z,80.27
2023-01-01T22:20:21.044Z,80.38
2023-01-01T22:23:36.447Z,80.49
2023-01-01T22:26:43.246Z,80.36
2023-01-01T22:29:50.299Z,80.51
2023-01-01T22:33:00.351Z,80.68
2023-01-01T22:36:16.097Z,80.63
2023-01-01T22:39:29.555Z,80.51
2023-01-01T22:42:39.897Z,80.46
2023-01-01T22:45:48.733Z,80.66
2023-01-01T22:48:59.070Z,80.74
2023-01-01T22:52:07.999Z,80.92
2023-01-01T22:55:14.982Z,80.94
2023-01-01T22:58:24.600Z,81.05
2023-01-01T23:01:31.218Z,81.25
2023-01-01T23:04:38.297Z,81.29
2023-01-01T23:07:45.454Z,81.52
2023-01-01T23:10:52.313Z,81.46
2023-01-01T23:14:16.887Z,81.42
2023-01-01T23:17:23.660Z,81.60
2023-01-01T23:20:31.373Z,81.69
2023-01-01T23:23:39.315Z,81.69
2023-01-01T23:26:47.010Z,81.82
2023-01-01T23:29:55.120Z,81.91
2023-01-01T23:33:02.091Z,81.93
2023-01-01T23:36:10.663Z,82.02
2023-01-01T23:39:17.443Z,82.11
2023-01-01T23:42:24.235Z,82.24
2023-01-01T23:45:31.097Z,82.56
2023-01-01T23:48:38.086Z,82.50
2023-01-01T23:51:44.859Z,82.77
2023-01-01T23:54:51.612Z,82.83
2023-01-01T23:57:58.341Z,82.72
